N405ER KDAB-KLAL
Flight info
| Callsign | N405ER |
|---|---|
| Flight time | N/A |
| Altitude | 4500 |
| Route | KIZER T210 PUNQU |
| Aircraft | C172/L-SFG/C |
Departure
| Time | 2026-04-22 00:07 |
|---|---|
| Airport | Daytona Beach International Airport (KDAB) |
Arrival
| Time | N/A |
|---|---|
| Airport | Lakeland Linder International Airport (KLAL) |
| Time | Latitude | Longitude | Altitude | Speed | Heading |
|---|---|---|---|---|---|
| 2026-04-21 23:53 | 29.18803 | -81.05263 | 31 ft | 0 kts | 65° |
| 2026-04-22 00:01 | 29.18803 | -81.05262 | 31 ft | 0 kts | 65° |
| 2026-04-22 00:02 | 29.18808 | -81.05263 | 31 ft | 4 kts | 324° |
| 2026-04-22 00:02 | 29.18818 | -81.05275 | 30 ft | 0 kts | 286° |
| 2026-04-22 00:03 | 29.18816 | -81.05281 | 30 ft | 3 kts | 246° |
| 2026-04-22 00:03 | 29.18808 | -81.05303 | 31 ft | 4 kts | 252° |
| 2026-04-22 00:03 | 29.18793 | -81.05345 | 31 ft | 5 kts | 259° |
| 2026-04-22 00:03 | 29.18809 | -81.05363 | 31 ft | 7 kts | 345° |
| 2026-04-22 00:04 | 29.18891 | -81.05404 | 31 ft | 15 kts | 334° |
| 2026-04-22 00:04 | 29.18990 | -81.05451 | 31 ft | 15 kts | 337° |
| 2026-04-22 00:04 | 29.19091 | -81.05508 | 32 ft | 16 kts | 308° |
| 2026-04-22 00:04 | 29.19059 | -81.05607 | 32 ft | 16 kts | 174° |
| 2026-04-22 00:05 | 29.18956 | -81.05570 | 31 ft | 15 kts | 154° |
| 2026-04-22 00:05 | 29.18735 | -81.05464 | 31 ft | 53 kts | 156° |
| 2026-04-22 00:05 | 29.18406 | -81.05251 | 132 ft | 56 kts | 148° |
| 2026-04-22 00:05 | 29.17969 | -81.05105 | 160 ft | 72 kts | 153° |
| 2026-04-22 00:06 | 29.17468 | -81.04900 | 221 ft | 80 kts | 153° |
| 2026-04-22 00:06 | 29.16937 | -81.04677 | 304 ft | 82 kts | 153° |
| 2026-04-22 00:06 | 29.16361 | -81.04655 | 375 ft | 88 kts | 191° |
| 2026-04-22 00:06 | 29.15840 | -81.05077 | 423 ft | 94 kts | 215° |
| 2026-04-22 00:07 | 29.15374 | -81.05629 | 469 ft | 95 kts | 219° |
| 2026-04-22 00:07 | 29.14935 | -81.06190 | 514 ft | 95 kts | 221° |
| 2026-04-22 00:07 | 29.14486 | -81.06778 | 619 ft | 98 kts | 221° |
| 2026-04-22 00:07 | 29.14039 | -81.07373 | 789 ft | 97 kts | 222° |
| 2026-04-22 00:08 | 29.13597 | -81.07969 | 955 ft | 98 kts | 222° |
| 2026-04-22 00:08 | 29.13157 | -81.08569 | 1106 ft | 99 kts | 222° |
| 2026-04-22 00:08 | 29.12713 | -81.09178 | 1261 ft | 100 kts | 222° |
| 2026-04-22 00:08 | 29.12262 | -81.09798 | 1413 ft | 101 kts | 221° |
| 2026-04-22 00:09 | 29.11809 | -81.10422 | 1561 ft | 102 kts | 220° |
| 2026-04-22 00:09 | 29.11345 | -81.11062 | 1709 ft | 104 kts | 221° |
| 2026-04-22 00:09 | 29.10883 | -81.11699 | 1857 ft | 104 kts | 221° |
| 2026-04-22 00:09 | 29.10422 | -81.12332 | 2006 ft | 105 kts | 221° |
| 2026-04-22 00:10 | 29.09945 | -81.12988 | 2160 ft | 105 kts | 223° |
| 2026-04-22 00:10 | 29.09481 | -81.13630 | 2309 ft | 105 kts | 223° |
| 2026-04-22 00:10 | 29.09018 | -81.14270 | 2489 ft | 100 kts | 222° |
| 2026-04-22 00:10 | 29.08554 | -81.14906 | 2598 ft | 105 kts | 222° |
| 2026-04-22 00:11 | 29.08081 | -81.15559 | 2742 ft | 106 kts | 222° |
| 2026-04-22 00:11 | 29.07610 | -81.16208 | 2889 ft | 105 kts | 223° |
| 2026-04-22 00:11 | 29.07142 | -81.16853 | 3026 ft | 106 kts | 223° |
| 2026-04-22 00:11 | 29.06672 | -81.17499 | 3167 ft | 106 kts | 222° |
| 2026-04-22 00:12 | 29.06200 | -81.18149 | 3308 ft | 105 kts | 223° |
| 2026-04-22 00:12 | 29.05726 | -81.18801 | 3438 ft | 106 kts | 223° |
| 2026-04-22 00:12 | 29.05247 | -81.19459 | 3582 ft | 106 kts | 224° |
| 2026-04-22 00:12 | 29.04772 | -81.20110 | 3721 ft | 107 kts | 224° |
| 2026-04-22 00:13 | 29.04294 | -81.20766 | 3887 ft | 107 kts | 225° |
| 2026-04-22 00:13 | 29.03815 | -81.21424 | 4035 ft | 107 kts | 225° |
| 2026-04-22 00:13 | 29.03326 | -81.22097 | 4164 ft | 109 kts | 226° |
| 2026-04-22 00:13 | 29.02846 | -81.22759 | 4299 ft | 109 kts | 226° |
| 2026-04-22 00:14 | 29.02351 | -81.23439 | 4438 ft | 109 kts | 227° |
| 2026-04-22 00:14 | 29.01849 | -81.24129 | 4480 ft | 118 kts | 228° |
| 2026-04-22 00:14 | 29.01306 | -81.24881 | 4484 ft | 125 kts | 228° |
| 2026-04-22 00:14 | 29.00736 | -81.25671 | 4479 ft | 129 kts | 228° |
| 2026-04-22 00:15 | 29.00164 | -81.26463 | 4478 ft | 129 kts | 229° |
| 2026-04-22 00:15 | 28.99605 | -81.27240 | 4473 ft | 122 kts | 228° |
| 2026-04-22 00:15 | 28.99069 | -81.27980 | 4475 ft | 117 kts | 228° |
| 2026-04-22 00:15 | 28.98547 | -81.28696 | 4475 ft | 115 kts | 228° |
| 2026-04-22 00:16 | 28.98019 | -81.29420 | 4478 ft | 114 kts | 227° |
| 2026-04-22 00:16 | 28.97513 | -81.30112 | 4478 ft | 113 kts | 227° |
| 2026-04-22 00:16 | 28.97004 | -81.30808 | 4479 ft | 113 kts | 228° |
| 2026-04-22 00:16 | 28.96497 | -81.31503 | 4479 ft | 112 kts | 228° |
| 2026-04-22 00:17 | 28.96000 | -81.32184 | 4480 ft | 112 kts | 228° |
| 2026-04-22 00:17 | 28.95495 | -81.32876 | 4480 ft | 112 kts | 228° |
| 2026-04-22 00:17 | 28.94990 | -81.33569 | 4478 ft | 113 kts | 227° |
| 2026-04-22 00:17 | 28.94484 | -81.34261 | 4477 ft | 113 kts | 227° |
| 2026-04-22 00:18 | 28.93972 | -81.34963 | 4476 ft | 113 kts | 227° |
| 2026-04-22 00:18 | 28.93473 | -81.35645 | 4475 ft | 112 kts | 227° |
| 2026-04-22 00:18 | 28.92965 | -81.36341 | 4476 ft | 112 kts | 227° |
| 2026-04-22 00:18 | 28.92468 | -81.37035 | 4473 ft | 113 kts | 232° |
| 2026-04-22 00:19 | 28.92074 | -81.37809 | 4473 ft | 113 kts | 241° |